createdAt,value
2023-04-26T00:00:56.526Z,87.38
2023-04-26T00:04:18.602Z,87.32
2023-04-26T00:07:27.076Z,88.02
2023-04-26T00:10:43.481Z,88.30
2023-04-26T00:13:52.489Z,88.15
2023-04-26T00:17:07.529Z,88.40
2023-04-26T00:20:22.472Z,88.54
2023-04-26T00:23:24.436Z,88.27
2023-04-26T00:26:39.478Z,87.87
2023-04-26T00:29:48.364Z,88.04
2023-04-26T00:32:56.491Z,87.95
2023-04-26T00:36:11.525Z,88.45
2023-04-26T00:39:33.485Z,88.78
2023-04-26T00:42:48.533Z,88.99
2023-04-26T00:46:03.551Z,89.06
2023-04-26T00:49:16.942Z,89.31
2023-04-26T00:52:26.472Z,89.58
2023-04-26T00:55:41.531Z,89.57
2023-04-26T00:58:50.353Z,89.93
2023-04-26T01:01:58.517Z,89.21
2023-04-26T01:05:07.344Z,89.26
2023-04-26T01:08:16.487Z,89.46
2023-04-26T01:11:25.327Z,89.63
2023-04-26T01:14:34.485Z,89.93
2023-04-26T01:17:46.618Z,90.29
2023-04-26T01:20:56.510Z,90.68
2023-04-26T01:24:05.739Z,90.71
2023-04-26T01:27:14.489Z,91.06
2023-04-26T01:30:29.562Z,91.13
2023-04-26T01:33:38.497Z,90.76
2023-04-26T01:36:47.063Z,90.67
2023-04-26T01:40:01.509Z,90.80
2023-04-26T01:43:09.732Z,90.88
2023-04-26T01:46:24.528Z,90.76
2023-04-26T01:49:26.677Z,90.77
2023-04-26T01:52:41.532Z,90.80
2023-04-26T01:55:43.440Z,90.32
2023-04-26T01:58:58.498Z,90.12
2023-04-26T02:02:13.518Z,90.32
2023-04-26T02:05:15.458Z,90.17
2023-04-26T02:08:31.478Z,90.22
2023-04-26T02:11:46.520Z,89.88
2023-04-26T02:14:48.416Z,90.01
2023-04-26T02:18:03.533Z,89.37
2023-04-26T02:21:08.418Z,89.32
2023-04-26T02:24:23.492Z,89.73
2023-04-26T02:27:25.345Z,89.81
2023-04-26T02:30:43.511Z,89.80
2023-04-26T02:33:51.498Z,89.58
2023-04-26T02:37:06.520Z,89.31
2023-04-26T02:40:28.489Z,89.26
2023-04-26T02:43:37.519Z,89.25
2023-04-26T02:46:52.574Z,88.78
2023-04-26T02:50:01.050Z,88.77
2023-04-26T02:53:15.484Z,88.42
2023-04-26T02:56:17.270Z,88.36
2023-04-26T02:59:32.527Z,88.17
2023-04-26T03:02:40.642Z,88.32
2023-04-26T03:05:55.583Z,88.06
2023-04-26T03:09:04.493Z,88.14
2023-04-26T03:12:19.501Z,88.33
2023-04-26T03:15:34.503Z,88.40
2023-04-26T03:18:43.094Z,88.62
2023-04-26T03:21:51.469Z,88.46
2023-04-26T03:25:00.116Z,88.30
2023-04-26T03:28:14.488Z,87.36
2023-04-26T03:31:22.558Z,87.29
2023-04-26T03:34:31.042Z,87.61
2023-04-26T03:37:39.514Z,87.92
2023-04-26T03:41:01.492Z,87.92
2023-04-26T03:44:16.484Z,88.05
2023-04-26T03:47:24.514Z,88.12
2023-04-26T03:50:39.539Z,88.11
2023-04-26T03:53:41.329Z,88.37
2023-04-26T03:56:56.517Z,88.66
2023-04-26T03:59:58.389Z,88.38
2023-04-26T04:03:13.710Z,88.32
2023-04-26T04:06:22.477Z,87.64
2023-04-26T04:09:37.496Z,87.38
2023-04-26T04:12:39.320Z,86.87
2023-04-26T04:15:54.537Z,86.95
2023-04-26T04:19:03.529Z,86.71
2023-04-26T04:22:12.305Z,86.03
2023-04-26T04:25:20.482Z,85.44
2023-04-26T04:28:35.476Z,84.89
2023-04-26T04:31:44.563Z,84.36
2023-04-26T04:34:53.051Z,83.81
2023-04-26T04:38:08.484Z,83.99
2023-04-26T04:41:16.754Z,84.10
2023-04-26T04:44:31.527Z,83.64
2023-04-26T04:47:33.429Z,83.09
2023-04-26T04:50:48.489Z,81.83
2023-04-26T04:53:56.498Z,81.82
2023-04-26T04:57:05.784Z,82.34
2023-04-26T05:00:21.568Z,82.71
2023-04-26T05:03:36.667Z,83.38
2023-04-26T05:06:38.581Z,83.89
2023-04-26T05:09:53.501Z,83.98
2023-04-26T05:13:08.483Z,84.42
2023-04-26T05:16:23.530Z,84.54
2023-04-26T05:19:38.495Z,83.78
2023-04-26T05:22:47.100Z,84.06
2023-04-26T05:25:55.536Z,83.89
2023-04-26T05:29:04.069Z,84.27
2023-04-26T05:32:18.492Z,84.51
2023-04-26T05:35:20.434Z,84.32
2023-04-26T05:38:35.472Z,83.44
2023-04-26T05:41:57.524Z,83.59
2023-04-26T05:45:13.495Z,82.14
2023-04-26T05:48:15.922Z,81.32
2023-04-26T05:55:02.689Z,80.62
2023-04-26T05:58:13.338Z,80.14
2023-04-26T06:01:21.599Z,78.52
2023-04-26T06:04:36.646Z,78.46
2023-04-26T06:07:51.538Z,77.81
2023-04-26T06:10:53.591Z,77.85
2023-04-26T06:14:14.384Z,76.86
2023-04-26T06:17:26.331Z,75.25
2023-04-26T06:20:43.205Z,72.82
2023-04-26T06:23:58.689Z,73.83
2023-04-26T06:27:07.489Z,72.45
2023-04-26T06:30:23.676Z,71.90
2023-04-26T06:33:26.052Z,70.39
2023-04-26T06:36:43.507Z,70.45
2023-04-26T06:40:07.578Z,69.96
2023-04-26T06:43:09.596Z,69.20
2023-04-26T06:46:24.596Z,68.38
2023-04-26T06:49:35.089Z,68.97
2023-04-26T06:52:44.726Z,68.84
2023-04-26T06:55:59.500Z,66.96
2023-04-26T06:59:07.121Z,67.88
2023-04-26T07:02:22.766Z,66.36
2023-04-26T07:05:24.941Z,69.39
2023-04-26T07:08:40.493Z,64.56
2023-04-26T07:11:49.191Z,64.66
2023-04-26T07:15:04.500Z,61.09
2023-04-26T07:18:13.700Z,59.07
2023-04-26T07:21:30.433Z,60.33
2023-04-26T07:24:46.557Z,58.80
2023-04-26T07:27:55.537Z,58.78
2023-04-26T07:31:05.972Z,57.57
2023-04-26T07:34:15.489Z,55.10
2023-04-26T07:37:24.120Z,55.92
2023-04-26T07:40:40.485Z,52.68
2023-04-26T07:43:56.526Z,52.94
2023-04-26T07:47:11.533Z,52.04
2023-04-26T07:50:21.524Z,50.96
2023-04-26T07:53:36.566Z,47.24
2023-04-26T07:56:52.551Z,47.36
2023-04-26T08:00:01.517Z,46.62
2023-04-26T08:03:15.375Z,45.82
2023-04-26T08:06:31.741Z,46.22
2023-04-26T08:09:40.110Z,45.71
2023-04-26T08:12:52.506Z,45.27
2023-04-26T08:16:02.870Z,45.18
2023-04-26T08:19:18.529Z,45.64
2023-04-26T08:22:28.333Z,44.80
2023-04-26T08:25:43.547Z,45.52
2023-04-26T08:28:52.045Z,46.18
2023-04-26T08:32:00.610Z,46.13
2023-04-26T08:35:16.503Z,45.77
2023-04-26T08:38:33.909Z,45.12
2023-04-26T08:41:44.716Z,44.68
2023-04-26T08:45:00.522Z,42.78
2023-04-26T08:48:12.366Z,42.74
2023-04-26T08:51:21.510Z,42.39
2023-04-26T08:54:41.055Z,41.51
2023-04-26T08:57:57.599Z,42.02
2023-04-26T09:01:14.556Z,42.10
2023-04-26T09:04:31.303Z,41.48
2023-04-26T09:07:54.570Z,40.99
2023-04-26T09:11:10.658Z,42.35
2023-04-26T09:14:19.772Z,42.65
2023-04-26T09:17:36.049Z,42.86
2023-04-26T09:20:51.619Z,41.81
2023-04-26T09:24:08.544Z,40.49
2023-04-26T09:27:10.412Z,39.51
2023-04-26T09:30:25.522Z,39.13
2023-04-26T09:33:40.480Z,44.93
2023-04-26T09:36:57.491Z,41.00
2023-04-26T09:40:25.553Z,41.57
2023-04-26T09:43:47.505Z,42.48
2023-04-26T09:47:15.805Z,40.83
2023-04-26T09:50:29.057Z,39.68
2023-04-26T09:53:47.498Z,39.65
2023-04-26T09:57:07.484Z,39.52
2023-04-26T10:00:16.493Z,39.26
2023-04-26T10:03:32.694Z,38.42
2023-04-26T10:06:48.584Z,38.74
2023-04-26T10:09:58.544Z,39.60
2023-04-26T10:13:07.563Z,40.07
2023-04-26T10:16:16.842Z,40.09
2023-04-26T10:19:32.950Z,38.37
2023-04-26T10:22:50.507Z,37.01
2023-04-26T10:25:59.280Z,37.37
2023-04-26T10:29:14.516Z,36.37
2023-04-26T10:32:30.508Z,36.04
2023-04-26T10:35:32.653Z,36.90
2023-04-26T10:39:09.548Z,37.10
2023-04-26T10:42:43.897Z,36.03
2023-04-26T10:46:00.346Z,35.76
2023-04-26T10:49:29.231Z,34.36
2023-04-26T10:53:04.080Z,33.90
2023-04-26T10:56:12.526Z,34.94
2023-04-26T10:59:43.566Z,33.86
2023-04-26T11:03:06.656Z,32.85
2023-04-26T11:06:15.715Z,32.94
2023-04-26T11:09:56.514Z,35.14
2023-04-26T11:13:05.479Z,36.92
2023-04-26T11:16:18.552Z,38.64
2023-04-26T11:19:27.197Z,37.15
2023-04-26T11:22:35.513Z,37.41
2023-04-26T11:25:51.543Z,37.54
2023-04-26T11:29:00.521Z,38.79
2023-04-26T11:32:09.091Z,38.53
2023-04-26T11:35:17.514Z,36.36
2023-04-26T11:38:34.569Z,35.94
2023-04-26T11:41:36.670Z,37.74
2023-04-26T11:44:52.593Z,38.95
2023-04-26T11:48:08.577Z,39.71
2023-04-26T11:51:17.694Z,39.23
2023-04-26T11:54:35.672Z,40.08
2023-04-26T11:57:44.511Z,40.07
2023-04-26T12:01:02.108Z,39.53
2023-04-26T12:04:16.700Z,39.56
2023-04-26T12:07:19.079Z,38.00
2023-04-26T12:10:42.527Z,38.74
2023-04-26T12:14:05.550Z,37.37
2023-04-26T12:17:21.671Z,38.71
2023-04-26T12:20:41.521Z,39.48
2023-04-26T12:23:50.438Z,39.88
2023-04-26T12:27:01.632Z,39.65
2023-04-26T12:30:11.462Z,38.92
2023-04-26T12:33:26.623Z,37.50
2023-04-26T12:36:41.533Z,38.57
2023-04-26T12:39:50.216Z,38.46
2023-04-26T12:43:11.582Z,40.09
2023-04-26T12:46:13.498Z,40.64
2023-04-26T12:49:28.529Z,40.97
2023-04-26T12:52:44.557Z,39.98
2023-04-26T12:55:53.111Z,39.90
2023-04-26T12:59:01.524Z,37.31
2023-04-26T13:02:16.696Z,37.67
2023-04-26T13:05:22.925Z,38.54
2023-04-26T13:08:38.721Z,40.39
2023-04-26T13:11:40.879Z,39.96
2023-04-26T13:14:55.530Z,39.58
2023-04-26T13:17:57.568Z,39.48
2023-04-26T13:21:12.542Z,40.18
2023-04-26T13:24:21.136Z,38.11
2023-04-26T13:27:35.527Z,37.68
2023-04-26T13:30:44.311Z,38.10
2023-04-26T13:33:53.713Z,39.02
2023-04-26T13:37:02.291Z,39.19
2023-04-26T13:40:11.547Z,37.99
2023-04-26T13:43:33.568Z,38.31
2023-04-26T13:46:41.802Z,37.76
2023-04-26T13:49:56.518Z,36.28
2023-04-26T13:53:11.561Z,37.52
2023-04-26T13:56:26.860Z,36.77
2023-04-26T13:59:28.812Z,38.01
2023-04-26T14:02:43.804Z,39.46
2023-04-26T14:05:52.287Z,40.46
2023-04-26T14:09:07.570Z,41.25
2023-04-26T14:12:16.564Z,41.18
2023-04-26T14:15:25.154Z,41.54
2023-04-26T14:18:39.552Z,40.17
2023-04-26T14:21:42.138Z,37.72
2023-04-26T14:24:56.567Z,37.88
2023-04-26T14:28:06.020Z,37.37
2023-04-26T14:31:14.852Z,37.43
2023-04-26T14:34:23.144Z,37.99
2023-04-26T14:37:37.536Z,38.82
2023-04-26T14:40:46.521Z,39.39
2023-04-26T14:44:01.546Z,39.99
2023-04-26T14:47:16.548Z,39.35
2023-04-26T14:50:25.307Z,38.48
2023-04-26T14:53:33.592Z,38.96
2023-04-26T14:56:42.174Z,38.71
2023-04-26T14:59:50.558Z,40.41
2023-04-26T15:03:05.680Z,41.67
2023-04-26T15:06:20.525Z,41.98
2023-04-26T15:09:36.513Z,42.67
2023-04-26T15:12:44.545Z,42.61
2023-04-26T15:15:59.539Z,41.67
2023-04-26T15:19:08.153Z,40.52
2023-04-26T15:22:16.564Z,40.22
2023-04-26T15:25:31.620Z,40.02
2023-04-26T15:28:40.236Z,40.29
2023-04-26T15:31:48.619Z,41.07
2023-04-26T15:34:57.708Z,41.32
2023-04-26T15:38:06.527Z,42.42
2023-04-26T15:41:21.820Z,42.68
2023-04-26T15:44:30.553Z,42.51
2023-04-26T15:51:12.561Z,42.66
2023-04-26T15:54:21.825Z,41.84
2023-04-26T15:57:30.537Z,41.08
2023-04-26T16:00:45.535Z,40.83
2023-04-26T16:04:00.769Z,41.01
2023-04-26T16:07:15.585Z,40.03
2023-04-26T16:10:30.601Z,39.83
2023-04-26T16:13:39.164Z,39.93
2023-04-26T16:16:53.812Z,39.49
2023-04-26T16:20:03.424Z,40.23
2023-04-26T16:23:12.536Z,39.84
2023-04-26T16:26:27.553Z,38.55
2023-04-26T16:29:29.919Z,38.13
2023-04-26T16:32:44.685Z,38.34
2023-04-26T16:35:50.455Z,38.73
2023-04-26T16:39:05.557Z,39.43
2023-04-26T16:42:27.650Z,39.45
2023-04-26T16:45:42.637Z,39.72
2023-04-26T16:48:57.521Z,40.10
2023-04-26T16:51:59.765Z,40.80
2023-04-26T16:55:15.552Z,41.13
2023-04-26T16:58:24.550Z,41.46
2023-04-26T17:01:39.573Z,41.67
2023-04-26T17:04:48.928Z,42.52
2023-04-26T17:07:57.166Z,42.58
2023-04-26T17:11:11.560Z,42.39
2023-04-26T17:14:13.806Z,42.16
2023-04-26T17:17:28.585Z,42.68
2023-04-26T17:20:38.382Z,42.55
2023-04-26T17:23:46.536Z,42.62
2023-04-26T17:27:01.537Z,42.78
2023-04-26T17:30:10.531Z,43.51
2023-04-26T17:33:19.589Z,43.45
2023-04-26T17:36:28.570Z,43.14
2023-04-26T17:39:37.326Z,42.76
2023-04-26T17:42:59.578Z,43.04
2023-04-26T17:46:08.115Z,43.11
2023-04-26T17:49:17.120Z,42.83
2023-04-26T17:52:32.561Z,42.79
2023-04-26T17:55:34.894Z,43.66
2023-04-26T17:58:49.592Z,42.77
2023-04-26T18:02:04.607Z,43.40
2023-04-26T18:05:14.198Z,43.23
2023-04-26T18:08:23.664Z,43.11
2023-04-26T18:11:39.999Z,43.01
2023-04-26T18:14:48.635Z,42.81
2023-04-26T18:18:03.618Z,43.13
2023-04-26T18:21:06.454Z,42.79
2023-04-26T18:24:24.669Z,43.56
2023-04-26T18:27:33.843Z,43.11
2023-04-26T18:30:46.159Z,43.39
2023-04-26T18:33:55.863Z,43.18
2023-04-26T18:37:04.639Z,43.36
2023-04-26T18:40:19.635Z,43.58
2023-04-26T18:43:36.216Z,43.58
2023-04-26T18:46:47.150Z,43.85
2023-04-26T18:50:02.930Z,43.66
2023-04-26T18:53:11.765Z,44.23
2023-04-26T18:56:27.543Z,43.92
2023-04-26T18:59:36.747Z,44.33
2023-04-26T19:02:46.126Z,44.46
2023-04-26T19:05:55.282Z,45.03
2023-04-26T19:09:03.987Z,45.31
2023-04-26T19:12:12.835Z,45.49
2023-04-26T19:15:22.023Z,45.54
2023-04-26T19:18:31.271Z,45.56
2023-04-26T19:21:46.970Z,46.09
2023-04-26T19:25:02.953Z,46.08
2023-04-26T19:28:18.084Z,45.57
2023-04-26T19:31:20.754Z,45.80
2023-04-26T19:34:35.980Z,45.94
2023-04-26T19:37:38.695Z,45.84
2023-04-26T19:40:56.291Z,45.78
2023-04-26T19:44:13.024Z,45.89
2023-04-26T19:47:21.370Z,46.48
2023-04-26T19:50:38.025Z,46.26
2023-04-26T19:53:46.268Z,45.54
2023-04-26T19:57:01.551Z,45.55
2023-04-26T20:00:11.155Z,46.11
2023-04-26T20:03:25.684Z,46.64
2023-04-26T20:06:34.830Z,46.38
2023-04-26T20:09:50.001Z,46.74
2023-04-26T20:13:05.065Z,46.75
2023-04-26T20:16:20.033Z,46.74
2023-04-26T20:19:37.073Z,46.84
2023-04-26T20:22:46.365Z,47.44
2023-04-26T20:25:54.565Z,47.83
2023-04-26T20:29:10.049Z,47.43
2023-04-26T20:32:24.684Z,47.20
2023-04-26T20:35:33.908Z,47.13
2023-04-26T20:38:42.899Z,47.62
2023-04-26T20:41:51.968Z,47.82
2023-04-26T20:45:13.576Z,48.19
2023-04-26T20:48:15.503Z,49.30
2023-04-26T20:51:31.561Z,49.39
2023-04-26T20:54:46.586Z,49.72
2023-04-26T20:57:48.582Z,49.74
2023-04-26T21:01:05.663Z,50.14
2023-04-26T21:04:15.664Z,50.55
2023-04-26T21:07:24.167Z,51.61
2023-04-26T21:10:32.560Z,51.77
2023-04-26T21:13:41.481Z,53.66
2023-04-26T21:16:49.570Z,54.23
2023-04-26T21:19:58.240Z,56.65
2023-04-26T21:23:06.538Z,56.36
2023-04-26T21:26:15.114Z,57.77
2023-04-26T21:29:23.553Z,58.03
2023-04-26T21:32:42.615Z,57.90
2023-04-26T21:35:44.479Z,57.48
2023-04-26T21:38:59.538Z,57.07
2023-04-26T21:42:07.888Z,57.61
2023-04-26T21:45:22.566Z,58.49
2023-04-26T21:48:31.165Z,58.28
2023-04-26T21:51:39.558Z,61.10
2023-04-26T21:54:54.571Z,59.49
2023-04-26T21:57:56.430Z,57.63
2023-04-26T22:01:16.581Z,57.46
2023-04-26T22:04:31.617Z,57.30
2023-04-26T22:07:40.560Z,58.72
2023-04-26T22:10:55.559Z,59.70
2023-04-26T22:13:57.564Z,60.75
2023-04-26T22:17:12.561Z,61.51
2023-04-26T22:20:21.328Z,61.00
2023-04-26T22:23:36.554Z,63.45
2023-04-26T22:26:38.437Z,62.98
2023-04-26T22:29:53.559Z,63.32
2023-04-26T22:33:02.213Z,64.45
2023-04-26T22:36:17.625Z,65.40
2023-04-26T22:39:26.237Z,65.68
2023-04-26T22:42:41.620Z,65.12
2023-04-26T22:45:50.301Z,65.93
2023-04-26T22:49:06.583Z,66.71
2023-04-26T22:52:14.478Z,66.18
2023-04-26T22:55:35.573Z,66.00
2023-04-26T22:58:50.545Z,68.20
2023-04-26T23:01:52.403Z,69.25
2023-04-26T23:05:08.533Z,69.96
2023-04-26T23:08:20.182Z,69.61
2023-04-26T23:11:34.549Z,70.68
2023-04-26T23:14:43.260Z,72.61
2023-04-26T23:17:51.589Z,72.08
2023-04-26T23:21:06.582Z,73.25
2023-04-26T23:24:14.554Z,72.28
2023-04-26T23:27:23.085Z,72.88
2023-04-26T23:30:37.562Z,73.07
2023-04-26T23:33:46.111Z,74.48
2023-04-26T23:37:07.890Z,75.22
2023-04-26T23:40:11.293Z,74.63
2023-04-26T23:43:33.554Z,75.47
2023-04-26T23:46:42.214Z,76.03
2023-04-26T23:49:57.534Z,77.23
2023-04-26T23:52:59.505Z,78.70
2023-04-26T23:56:14.569Z,79.46
2023-04-26T23:59:16.447Z,79.52
